Time;durP1;ratioP1;P1;durP2;ratioP2;P2;SDS_P1;SDS_P2;PMS_P1;PMS_P2;Temp;Humidity;BMP_temperature;BMP_pressure;BME280_temperature;BME280_humidity;BME280_pressure;Samples;Min_cycle;Max_cycle;Signal;HPM_P1;HPM_P2
2023/07/28 00:01:08;;;;;;;5.20;2.27;;;23.00;79.50;;;;;;5026180;28;20025;-67
2023/07/28 00:03:33;;;;;;;4.40;2.50;;;23.00;79.80;;;;;;5026495;28;20494;-67
2023/07/28 00:05:59;;;;;;;3.53;2.17;;;23.00;79.80;;;;;;5026071;28;20033;-67
2023/07/28 00:08:24;;;;;;;11.40;3.50;;;23.00;80.80;;;;;;5024696;28;20033;-67
2023/07/28 00:10:50;;;;;;;9.77;1.80;;;23.10;79.40;;;;;;5028184;28;20523;-68
2023/07/28 00:13:15;;;;;;;4.10;2.27;;;23.10;79.90;;;;;;5024839;28;20029;-67
2023/07/28 00:19:03;;;;;;;6.05;2.25;;;23.10;80.60;;;;;;5029776;28;20032;-66
2023/07/28 00:21:29;;;;;;;11.05;2.28;;;23.00;81.50;;;;;;5030492;28;20037;-67
2023/07/28 00:23:54;;;;;;;7.83;2.40;;;23.10;81.30;;;;;;5029477;28;20102;-67
2023/07/28 00:26:20;;;;;;;8.43;2.37;;;23.10;80.90;;;;;;5029355;28;20038;-67
2023/07/28 00:28:45;;;;;;;4.40;2.13;;;23.10;81.40;;;;;;5024085;28;20033;-67
2023/07/28 00:31:11;;;;;;;4.00;1.87;;;23.10;81.60;;;;;;5024044;28;20457;-67
2023/07/28 00:33:37;;;;;;;3.67;1.90;;;23.10;81.70;;;;;;5029903;28;20028;-67
2023/07/28 00:36:03;;;;;;;5.80;2.25;;;23.00;81.90;;;;;;5024069;28;20036;-67
2023/07/28 00:38:29;;;;;;;5.53;2.20;;;23.00;82.10;;;;;;5030931;28;20026;-67
2023/07/28 00:40:54;;;;;;;7.50;2.20;;;23.00;83.10;;;;;;5027540;28;20095;-67
2023/07/28 00:43:20;;;;;;;7.47;2.50;;;22.90;83.30;;;;;;5026420;28;20029;-68
2023/07/28 00:45:45;;;;;;;6.43;2.53;;;22.90;83.80;;;;;;5029115;28;20127;-67
2023/07/28 00:48:13;;;;;;;11.20;2.47;;;22.90;83.90;;;;;;5031274;28;20029;-68
2023/07/28 00:50:42;;;;;;;6.32;2.05;;;22.90;85.00;;;;;;5028040;28;20044;-67
2023/07/28 00:53:08;;;;;;;5.45;2.70;;;23.00;84.30;;;;;;5030331;28;20036;-67
2023/07/28 00:55:34;;;;;;;5.00;2.22;;;22.90;84.60;;;;;;5029813;28;20037;-67
2023/07/28 00:58:00;;;;;;;7.47;2.35;;;22.80;85.60;;;;;;5028977;28;20072;-67
2023/07/28 01:00:25;;;;;;;9.90;3.13;;;22.80;86.20;;;;;;5030689;28;20064;-67
2023/07/28 01:02:51;;;;;;;9.23;2.57;;;22.80;86.70;;;;;;5030608;28;20271;-67
2023/07/28 01:05:16;;;;;;;4.70;2.67;;;22.70;87.50;;;;;;5028556;28;20031;-68
2023/07/28 01:08:05;;;;;;;9.73;2.57;;;22.60;88.00;;;;;;5026923;28;20029;-67
2023/07/28 01:10:32;;;;;;;6.38;2.10;;;22.70;89.10;;;;;;5027782;28;20437;-68
2023/07/28 01:12:58;;;;;;;11.18;2.60;;;22.60;89.50;;;;;;5027776;28;20025;-68
2023/07/28 01:15:24;;;;;;;10.38;2.50;;;22.60;90.60;;;;;;5034786;28;20044;-67
2023/07/28 01:17:50;;;;;;;6.70;2.22;;;22.60;90.50;;;;;;5028436;28;20676;-67
2023/07/28 01:20:16;;;;;;;5.15;2.58;;;22.70;90.50;;;;;;5027876;28;20441;-67
2023/07/28 01:22:41;;;;;;;10.93;2.90;;;22.80;90.80;;;;;;5028820;28;21503;-68
2023/07/28 01:25:45;;;;;;;9.67;3.30;;;22.80;91.10;;;;;;5028039;28;20144;-67
2023/07/28 01:28:12;;;;;;;9.32;2.65;;;22.60;91.60;;;;;;5026547;28;20421;-67
2023/07/28 01:30:38;;;;;;;7.10;2.80;;;22.70;92.00;;;;;;5029543;28;20025;-68
2023/07/28 01:33:07;;;;;;;6.95;3.03;;;22.60;92.10;;;;;;5027590;28;20094;-66
2023/07/28 01:35:33;;;;;;;9.48;2.92;;;22.60;92.60;;;;;;5027115;28;20406;-67
2023/07/28 01:37:58;;;;;;;11.80;3.40;;;22.60;92.80;;;;;;5025361;28;20029;-66
2023/07/28 01:40:24;;;;;;;14.70;3.20;;;22.60;93.20;;;;;;5028572;28;20409;-67
2023/07/28 01:42:49;;;;;;;6.80;2.80;;;22.60;93.50;;;;;;5026246;28;20037;-67
2023/07/28 01:45:15;;;;;;;7.57;2.93;;;22.50;94.10;;;;;;5022340;28;20073;-68
2023/07/28 01:47:41;;;;;;;10.17;3.47;;;22.60;94.40;;;;;;5032996;28;20037;-68
2023/07/28 01:50:06;;;;;;;14.40;2.97;;;22.40;95.30;;;;;;5027469;28;20030;-68
2023/07/28 01:52:32;;;;;;;7.53;3.28;;;22.40;95.80;;;;;;5028097;28;20168;-69
2023/07/28 01:54:58;;;;;;;10.70;3.03;;;22.50;95.60;;;;;;5023034;28;20382;-67
2023/07/28 01:57:27;;;;;;;6.20;2.83;;;22.40;96.20;;;;;;5029129;28;20098;-67
2023/07/28 01:59:53;;;;;;;9.40;3.50;;;22.40;96.40;;;;;;5023340;28;20405;-68
2023/07/28 02:02:18;;;;;;;9.50;3.63;;;22.40;97.00;;;;;;5026393;28;20037;-69
2023/07/28 02:04:44;;;;;;;5.70;2.97;;;22.40;97.20;;;;;;5026983;28;20030;-68
2023/07/28 02:07:09;;;;;;;10.10;3.30;;;22.40;97.70;;;;;;5025924;28;20033;-68
2023/07/28 02:09:35;;;;;;;11.67;3.70;;;22.20;98.20;;;;;;5028107;28;20083;-68
2023/07/28 02:12:00;;;;;;;5.57;2.97;;;22.20;98.70;;;;;;5021118;28;20492;-68
2023/07/28 02:14:26;;;;;;;9.52;4.35;;;22.20;99.50;;;;;;5030033;28;20033;-68
2023/07/28 02:16:51;;;;;;;9.97;3.77;;;22.20;99.80;;;;;;5031163;28;20517;-68
2023/07/28 02:19:17;;;;;;;13.77;3.67;;;22.30;99.90;;;;;;5034609;28;20083;-68
2023/07/28 02:21:43;;;;;;;8.43;3.30;;;22.40;99.90;;;;;;5029003;28;20034;-69
2023/07/28 02:24:08;;;;;;;9.77;4.03;;;22.40;99.90;;;;;;5026445;28;20032;-68
2023/07/28 02:26:34;;;;;;;7.97;4.20;;;22.50;99.90;;;;;;5032554;28;20451;-69
2023/07/28 02:29:00;;;;;;;12.50;4.53;;;22.50;99.90;;;;;;5030049;28;20049;-67
2023/07/28 02:31:25;;;;;;;9.97;3.93;;;22.60;99.90;;;;;;5024477;28;20112;-68
2023/07/28 02:33:51;;;;;;;8.73;4.00;;;22.60;99.90;;;;;;5025225;28;20768;-68
2023/07/28 02:36:16;;;;;;;8.53;4.20;;;22.40;99.90;;;;;;5027039;28;20028;-67
2023/07/28 02:38:42;;;;;;;8.97;4.23;;;22.40;99.90;;;;;;5022715;28;20033;-67
2023/07/28 02:41:07;;;;;;;15.37;5.10;;;22.40;99.90;;;;;;5027915;28;20044;-68
2023/07/28 02:43:33;;;;;;;7.33;4.40;;;22.40;99.90;;;;;;5028570;28;20528;-67
2023/07/28 02:46:00;;;;;;;12.83;5.70;;;22.40;99.90;;;;;;5029912;28;20064;-69
2023/07/28 02:48:26;;;;;;;10.90;5.63;;;22.40;99.90;;;;;;5031419;28;20469;-68
2023/07/28 02:50:52;;;;;;;8.82;4.88;;;22.40;99.90;;;;;;5037776;28;20048;-68
2023/07/28 02:53:19;;;;;;;16.05;5.45;;;22.50;99.90;;;;;;5034255;28;20040;-68
2023/07/28 02:55:45;;;;;;;;;;;22.40;99.90;;;;;;5027939;28;20116;-69
2023/07/28 02:58:11;;;;;;;11.13;5.18;;;22.30;99.90;;;;;;5028006;28;20029;-69
2023/07/28 03:00:41;;;;;;;17.83;5.70;;;22.30;99.90;;;;;;5029773;28;20105;-67
2023/07/28 03:03:11;;;;;;;12.38;5.43;;;22.30;99.90;;;;;;5028433;28;20037;-67
2023/07/28 03:05:37;;;;;;;15.90;5.75;;;22.30;99.90;;;;;;5027440;28;20025;-68
2023/07/28 03:08:03;;;;;;;10.85;5.72;;;22.40;99.90;;;;;;5036944;28;20405;-68
2023/07/28 03:10:29;;;;;;;15.20;5.15;;;22.40;99.90;;;;;;5029901;28;20489;-68
2023/07/28 03:12:55;;;;;;;11.43;5.28;;;22.40;99.90;;;;;;5026915;28;20044;-68
2023/07/28 03:15:24;;;;;;;12.73;6.47;;;22.40;99.90;;;;;;5026059;28;20610;-69
2023/07/28 03:17:50;;;;;;;8.55;5.10;;;22.40;99.90;;;;;;5026968;28;20038;-69
2023/07/28 03:20:16;;;;;;;9.13;5.00;;;22.50;99.90;;;;;;5021032;28;20780;-68
2023/07/28 03:22:42;;;;;;;20.98;6.30;;;22.30;99.90;;;;;;5025199;28;20037;-68
2023/07/28 03:25:09;;;;;;;12.07;5.55;;;22.40;99.90;;;;;;5026627;28;20406;-68
2023/07/28 03:27:35;;;;;;;;;;;22.40;99.90;;;;;;5023925;28;20044;-68
2023/07/28 03:30:01;;;;;;;11.80;4.78;;;22.40;99.90;;;;;;5022186;28;19913;-68
2023/07/28 03:32:27;;;;;;;10.27;5.20;;;22.40;99.90;;;;;;5031831;28;20033;-68
2023/07/28 03:34:52;;;;;;;20.90;6.43;;;22.30;99.90;;;;;;5021245;28;20525;-68
2023/07/28 03:37:19;;;;;;;9.47;5.40;;;22.30;99.90;;;;;;5027823;28;20025;-67
2023/07/28 03:39:44;;;;;;;;;;;22.20;99.90;;;;;;5026285;28;20509;-68
2023/07/28 03:42:10;;;;;;;9.68;5.20;;;22.10;99.90;;;;;;5024808;28;20002;-67
2023/07/28 03:44:37;;;;;;;18.63;5.97;;;22.20;99.90;;;;;;5029741;28;20038;-68
2023/07/28 03:47:03;;;;;;;12.40;6.05;;;22.20;99.90;;;;;;5030551;28;20021;-67
2023/07/28 03:49:29;;;;;;;16.15;6.03;;;22.20;99.90;;;;;;5038158;28;20052;-68
2023/07/28 03:51:55;;;;;;;11.32;6.20;;;22.30;99.90;;;;;;5031400;28;20053;-68
2023/07/28 03:54:21;;;;;;;12.23;5.68;;;22.20;99.90;;;;;;5028396;28;20038;-68
2023/07/28 03:56:46;;;;;;;16.53;6.10;;;22.30;99.90;;;;;;5029144;28;20033;-69
2023/07/28 03:59:12;;;;;;;12.57;6.10;;;22.30;99.90;;;;;;5029260;28;20037;-70
2023/07/28 04:01:37;;;;;;;19.37;7.50;;;22.30;99.90;;;;;;5030792;28;20040;-69
2023/07/28 04:04:04;;;;;;;8.63;5.80;;;22.30;99.90;;;;;;5028329;28;20095;-69
2023/07/28 04:06:44;;;;;;;11.63;6.20;;;22.30;99.90;;;;;;5026331;28;20061;-69
2023/07/28 04:09:11;;;;;;;10.50;5.60;;;22.40;99.90;;;;;;5027888;28;20619;-68
2023/07/28 04:11:37;;;;;;;9.23;5.68;;;22.40;99.90;;;;;;5028654;28;20049;-68
2023/07/28 04:14:03;;;;;;;9.02;5.07;;;22.40;99.90;;;;;;5033446;28;20521;-67
2023/07/28 04:16:29;;;;;;;10.68;5.20;;;22.40;99.90;;;;;;5035134;28;20052;-68
2023/07/28 04:18:55;;;;;;;10.15;5.40;;;22.30;99.90;;;;;;5032456;28;20021;-68
2023/07/28 04:21:20;;;;;;;17.53;5.63;;;22.40;99.90;;;;;;5031137;28;20037;-68
2023/07/28 04:23:46;;;;;;;9.13;5.20;;;22.40;99.90;;;;;;5027112;28;20049;-68
2023/07/28 04:26:12;;;;;;;11.75;5.45;;;22.40;99.90;;;;;;5030344;28;20140;-69
2023/07/28 04:28:37;;;;;;;17.30;5.43;;;22.40;99.90;;;;;;5027927;28;20147;-68
2023/07/28 04:31:03;;;;;;;13.60;5.23;;;22.30;99.90;;;;;;5029020;28;20033;-72
2023/07/28 04:33:29;;;;;;;12.83;5.10;;;22.40;99.90;;;;;;5033483;28;20091;-69
2023/07/28 04:35:54;;;;;;;10.10;5.40;;;22.40;99.90;;;;;;5023160;28;20040;-67
2023/07/28 04:38:20;;;;;;;17.37;5.77;;;22.30;99.90;;;;;;5029043;28;20017;-68
2023/07/28 04:40:45;;;;;;;14.97;6.70;;;22.20;99.90;;;;;;5024464;28;20398;-68
2023/07/28 04:43:11;;;;;;;15.60;4.97;;;22.10;99.90;;;;;;5029740;28;20109;-69
2023/07/28 04:45:37;;;;;;;13.07;5.40;;;22.00;99.90;;;;;;5031742;28;20036;-68
2023/07/28 04:48:03;;;;;;;15.33;5.10;;;22.00;99.90;;;;;;5032918;28;20116;-70
2023/07/28 04:50:28;;;;;;;12.38;5.30;;;22.00;99.90;;;;;;5026691;28;20343;-69
2023/07/28 04:52:54;;;;;;;11.98;5.07;;;22.10;99.90;;;;;;5023944;28;20053;-68
2023/07/28 04:55:20;;;;;;;12.32;5.10;;;22.10;99.90;;;;;;5034466;28;20032;-69
2023/07/28 04:57:46;;;;;;;14.47;4.97;;;22.20;99.90;;;;;;5030495;28;20051;-68
2023/07/28 05:00:12;;;;;;;13.33;5.30;;;22.10;99.90;;;;;;5025620;28;20117;-69
2023/07/28 05:02:38;;;;;;;15.63;5.57;;;22.00;99.90;;;;;;5021319;28;20067;-69
2023/07/28 05:05:04;;;;;;;11.73;6.00;;;22.00;99.90;;;;;;5034568;28;20025;-69
2023/07/28 05:07:30;;;;;;;9.57;4.90;;;22.00;99.90;;;;;;5026045;28;20042;-69
2023/07/28 05:09:55;;;;;;;17.48;6.40;;;22.00;99.90;;;;;;5019518;28;20030;-69
2023/07/28 05:12:21;;;;;;;12.80;5.57;;;22.10;99.90;;;;;;5027744;28;20057;-68
2023/07/28 05:14:46;;;;;;;14.87;5.40;;;22.40;99.90;;;;;;5023279;28;20037;-69
2023/07/28 05:17:12;;;;;;;16.37;5.90;;;22.40;99.90;;;;;;5025223;28;20484;-69
2023/07/28 05:19:37;;;;;;;10.77;5.57;;;22.90;99.90;;;;;;5027773;28;20121;-69
2023/07/28 05:22:03;;;;;;;12.70;5.20;;;22.90;99.90;;;;;;5029860;28;20029;-69
2023/07/28 05:24:29;;;;;;;14.45;5.95;;;22.90;99.90;;;;;;5023364;28;20123;-69
2023/07/28 05:26:54;;;;;;;11.07;5.03;;;23.70;99.90;;;;;;5030169;28;20493;-69
2023/07/28 05:29:20;;;;;;;9.10;4.70;;;23.10;99.90;;;;;;5026302;28;20053;-68
2023/07/28 05:31:46;;;;;;;9.73;4.93;;;23.20;99.90;;;;;;5028024;28;20171;-69
2023/07/28 05:34:12;;;;;;;9.73;4.97;;;24.80;99.90;;;;;;5028009;28;20026;-68
2023/07/28 05:36:38;;;;;;;11.90;4.90;;;26.30;95.20;;;;;;5020896;28;20104;-69
2023/07/28 05:39:04;;;;;;;12.98;4.60;;;25.20;95.90;;;;;;5029206;28;20585;-69
2023/07/28 05:41:30;;;;;;;;;;;24.50;98.60;;;;;;4987440;28;1103708;-69
2023/07/28 05:43:55;;;;;;;6.72;4.05;;;24.00;99.90;;;;;;5026856;28;19917;-68
2023/07/28 05:46:21;;;;;;;7.47;4.90;;;23.60;99.90;;;;;;5034053;28;20020;-68
2023/07/28 05:48:46;;;;;;;13.40;4.83;;;24.40;99.90;;;;;;5030003;28;20032;-69
2023/07/28 05:51:12;;;;;;;8.43;4.47;;;26.40;95.70;;;;;;5028896;28;20140;-68
2023/07/28 05:53:38;;;;;;;8.20;4.00;;;27.80;91.10;;;;;;5026687;28;20036;-68
2023/07/28 05:56:03;;;;;;;9.82;4.13;;;28.10;87.70;;;;;;5030866;28;20094;-69
2023/07/28 05:58:29;;;;;;;9.27;3.47;;;28.10;90.20;;;;;;5033864;28;20505;-68
2023/07/28 06:00:55;;;;;;;9.23;4.00;;;29.60;83.60;;;;;;5023699;28;20029;-68
2023/07/28 06:03:20;;;;;;;6.80;3.42;;;31.40;76.50;;;;;;5031388;28;20045;-68
2023/07/28 06:05:46;;;;;;;7.07;3.67;;;30.70;75.80;;;;;;5027712;28;20060;-67
2023/07/28 06:08:12;;;;;;;12.68;3.80;;;30.20;78.90;;;;;;5026339;28;20504;-68
2023/07/28 06:10:38;;;;;;;4.63;3.08;;;29.50;78.70;;;;;;5029877;28;20109;-67
2023/07/28 06:13:04;;;;;;;10.75;3.28;;;28.00;83.10;;;;;;5025760;28;20501;-68
2023/07/28 06:15:29;;;;;;;8.63;3.03;;;27.70;84.90;;;;;;5021167;28;20075;-67
2023/07/28 06:17:55;;;;;;;25.15;4.43;;;27.60;85.00;;;;;;5022001;28;20038;-65
2023/07/28 06:20:20;;;;;;;10.48;3.10;;;27.80;84.00;;;;;;5028170;28;20052;-66
2023/07/28 06:22:46;;;;;;;8.73;3.05;;;28.60;81.50;;;;;;5029854;28;20147;-65
2023/07/28 06:25:12;;;;;;;13.20;3.47;;;27.10;84.40;;;;;;5024215;28;20517;-66
2023/07/28 06:27:38;;;;;;;10.65;3.67;;;26.80;86.70;;;;;;5033179;28;20681;-67
2023/07/28 06:30:05;;;;;;;4.25;2.67;;;27.90;84.50;;;;;;5035914;28;20045;-68
2023/07/28 06:32:31;;;;;;;11.07;3.35;;;26.70;87.00;;;;;;5029978;28;20041;-66
2023/07/28 06:34:57;;;;;;;6.20;2.78;;;26.40;87.80;;;;;;5031334;28;20489;-67
2023/07/28 06:37:23;;;;;;;6.25;3.03;;;25.90;90.70;;;;;;5027971;28;20026;-66
2023/07/28 06:39:49;;;;;;;7.63;3.00;;;25.60;90.40;;;;;;5027635;28;20032;-68
2023/07/28 06:42:16;;;;;;;6.13;2.97;;;25.60;90.40;;;;;;5026663;28;20064;-68
2023/07/28 06:44:42;;;;;;;7.28;2.85;;;25.30;91.50;;;;;;5029222;28;20455;-68
2023/07/28 06:47:07;;;;;;;6.93;3.20;;;25.40;90.90;;;;;;5034406;28;20099;-66
2023/07/28 06:49:33;;;;;;;4.97;3.20;;;25.50;91.00;;;;;;5028731;28;20032;-68
2023/07/28 06:51:59;;;;;;;7.13;2.75;;;25.60;90.80;;;;;;5014440;28;20132;-67
2023/07/28 06:54:25;;;;;;;7.45;2.80;;;25.50;90.90;;;;;;5028512;28;20057;-71
2023/07/28 06:56:51;;;;;;;6.50;3.58;;;25.30;92.50;;;;;;5026763;28;20084;-67
2023/07/28 06:59:17;;;;;;;7.73;3.60;;;25.60;91.50;;;;;;5021850;28;20183;-67
2023/07/28 07:01:42;;;;;;;9.13;2.75;;;25.70;90.70;;;;;;5020685;28;20040;-67
2023/07/28 07:04:08;;;;;;;6.00;2.87;;;25.60;90.90;;;;;;5031890;28;20056;-67
2023/07/28 07:06:34;;;;;;;4.47;2.78;;;25.40;91.30;;;;;;5033814;28;20034;-68
2023/07/28 07:08:59;;;;;;;6.55;3.85;;;25.90;90.40;;;;;;5029338;28;20060;-67
2023/07/28 07:11:25;;;;;;;10.77;3.17;;;25.60;90.60;;;;;;5027936;28;20548;-67
2023/07/28 07:13:50;;;;;;;6.55;3.13;;;25.60;91.00;;;;;;5026878;28;20104;-67
2023/07/28 07:16:17;;;;;;;5.63;3.10;;;25.50;90.90;;;;;;5026510;28;20521;-68
2023/07/28 07:18:45;;;;;;;10.35;4.38;;;25.80;90.50;;;;;;5026794;28;20037;-68
2023/07/28 07:21:11;;;;;;;7.82;3.60;;;26.30;89.90;;;;;;5021646;28;20052;-67
2023/07/28 07:23:37;;;;;;;10.07;3.43;;;26.40;88.60;;;;;;5024583;28;20029;-68
2023/07/28 07:26:04;;;;;;;7.80;3.58;;;26.30;88.70;;;;;;5028869;28;20276;-66
2023/07/28 07:28:29;;;;;;;7.85;3.47;;;26.20;88.90;;;;;;5027374;28;20034;-67
2023/07/28 07:30:55;;;;;;;6.80;3.30;;;26.20;88.30;;;;;;5028175;28;20048;-66
2023/07/28 07:33:21;;;;;;;6.95;3.70;;;26.00;90.10;;;;;;5035230;28;20563;-68
2023/07/28 07:35:47;;;;;;;8.35;3.13;;;25.80;90.40;;;;;;5025158;28;20060;-67
2023/07/28 07:38:13;;;;;;;6.80;3.30;;;26.00;90.40;;;;;;5026391;28;20031;-68
2023/07/28 07:40:38;;;;;;;8.25;3.70;;;25.90;90.20;;;;;;5026089;28;20119;-66
2023/07/28 07:43:04;;;;;;;5.70;3.23;;;25.90;90.40;;;;;;5024527;28;20231;-67
2023/07/28 07:45:31;;;;;;;9.98;3.75;;;25.90;90.90;;;;;;5028257;28;20843;-68
2023/07/28 07:47:56;;;;;;;;;;;26.00;91.10;;;;;;5032843;28;20044;-68
2023/07/28 07:50:22;;;;;;;8.93;3.47;;;26.80;91.20;;;;;;5026998;28;20337;-70
2023/07/28 07:52:47;;;;;;;9.87;3.27;;;26.90;89.20;;;;;;5024961;28;20405;-78
2023/07/28 07:55:13;;;;;;;8.43;3.42;;;26.90;87.80;;;;;;5030684;28;20279;-75
2023/07/28 07:57:40;;;;;;;9.23;4.20;;;26.60;87.40;;;;;;5026684;28;20073;-71
2023/07/28 08:00:06;;;;;;;5.15;3.40;;;26.90;86.50;;;;;;5020957;28;20041;-77
2023/07/28 08:02:32;;;;;;;7.80;3.72;;;27.40;85.80;;;;;;5028090;28;20100;-71
2023/07/28 08:04:57;;;;;;;5.32;3.00;;;27.00;85.50;;;;;;5030288;28;20167;-74
2023/07/28 08:07:23;;;;;;;8.10;3.40;;;26.90;86.40;;;;;;5027282;28;20756;-72
2023/07/28 08:09:49;;;;;;;7.18;3.70;;;26.80;86.40;;;;;;5025967;28;20048;-75
2023/07/28 08:12:15;;;;;;;10.30;4.00;;;27.20;87.20;;;;;;5023975;28;20053;-81
2023/07/28 08:14:41;;;;;;;15.70;4.25;;;27.40;87.70;;;;;;5026715;28;20592;-68
2023/07/28 08:17:08;;;;;;;14.43;5.53;;;27.90;86.70;;;;;;5024483;28;20113;-70
2023/07/28 08:19:34;;;;;;;10.98;4.15;;;28.30;85.80;;;;;;5022865;28;20057;-76
2023/07/28 08:22:00;;;;;;;7.80;4.30;;;28.30;80.30;;;;;;5026192;28;20033;-73
2023/07/28 08:24:26;;;;;;;8.60;4.50;;;28.50;81.80;;;;;;5019781;28;20045;-74
2023/07/28 08:26:52;;;;;;;10.20;5.50;;;28.90;79.20;;;;;;5021120;28;20390;-79
2023/07/28 08:29:17;;;;;;;80.30;18.48;;;29.30;79.00;;;;;;5025014;28;20036;-75
2023/07/28 08:31:43;;;;;;;249.38;54.25;;;31.30;73.70;;;;;;5027982;28;20045;-76
2023/07/28 08:34:08;;;;;;;133.40;28.20;;;33.00;69.60;;;;;;5025515;28;20030;-74
2023/07/28 08:36:34;;;;;;;224.77;50.85;;;32.50;69.40;;;;;;5029020;28;20033;-73
2023/07/28 08:39:00;;;;;;;194.65;41.17;;;32.10;70.70;;;;;;5033258;28;20025;-74
2023/07/28 08:41:26;;;;;;;46.55;11.77;;;31.40;69.20;;;;;;5028372;28;20067;-72
2023/07/28 08:43:53;;;;;;;34.70;10.60;;;30.30;72.00;;;;;;5031344;28;20022;-71
2023/07/28 08:46:20;;;;;;;22.88;6.72;;;29.30;72.50;;;;;;5035311;28;20029;-68
2023/07/28 08:48:46;;;;;;;42.00;12.35;;;29.10;74.80;;;;;;5032832;28;20037;-71
2023/07/28 08:51:13;;;;;;;39.92;12.23;;;29.90;74.60;;;;;;5030416;28;20420;-72
2023/07/28 08:53:39;;;;;;;28.90;9.75;;;30.20;72.50;;;;;;5028113;28;20033;-70
2023/07/28 08:56:05;;;;;;;;;;;31.10;71.40;;;;;;5029963;28;20059;-72
2023/07/28 08:58:30;;;;;;;14.25;5.78;;;31.00;72.80;;;;;;5029071;28;19912;-72
2023/07/28 09:01:00;;;;;;;9.05;4.07;;;31.10;70.60;;;;;;5035050;28;20029;-70
2023/07/28 09:03:27;;;;;;;22.77;9.00;;;31.90;73.20;;;;;;5026702;28;20128;-71
2023/07/28 09:05:59;;;;;;;15.10;7.13;;;31.90;70.20;;;;;;5032534;28;20039;-69
2023/07/28 09:08:24;;;;;;;17.08;6.68;;;31.70;69.70;;;;;;5033543;28;20088;-72
2023/07/28 09:10:51;;;;;;;25.17;8.63;;;31.50;69.40;;;;;;5030753;28;20583;-70
2023/07/28 09:13:19;;;;;;;6.55;3.13;;;31.50;69.50;;;;;;5030779;28;20041;-72
2023/07/28 09:15:46;;;;;;;9.15;3.90;;;31.80;68.60;;;;;;5029321;28;20048;-72
2023/07/28 09:18:14;;;;;;;11.43;5.65;;;32.90;63.70;;;;;;5030663;28;20017;-71
2023/07/28 09:20:41;;;;;;;13.30;6.30;;;34.50;62.40;;;;;;5028474;28;20037;-71
2023/07/28 09:23:08;;;;;;;9.40;5.65;;;36.90;57.80;;;;;;5022420;28;20107;-68
2023/07/28 09:25:35;;;;;;;9.68;5.10;;;39.50;55.30;;;;;;5024783;28;20037;-72
2023/07/28 09:28:01;;;;;;;5.53;2.83;;;39.50;51.90;;;;;;5029771;28;20060;-70
2023/07/28 09:30:27;;;;;;;;;;;41.40;51.80;;;;;;5032970;28;20553;-74
2023/07/28 09:32:54;;;;;;;6.78;4.60;;;42.60;49.20;;;;;;5033195;28;19917;-70
2023/07/28 09:35:22;;;;;;;5.13;3.78;;;43.20;48.30;;;;;;5030472;28;20378;-68
2023/07/28 09:37:50;;;;;;;7.85;3.83;;;43.50;47.00;;;;;;5034883;28;20035;-70
2023/07/28 09:40:21;;;;;;;18.48;3.30;;;44.10;47.00;;;;;;5028247;28;20256;-72
2023/07/28 09:42:54;;;;;;;3.72;2.88;;;44.30;47.20;;;;;;5025696;28;20547;-74
2023/07/28 09:45:21;;;;;;;3.60;2.92;;;43.00;46.80;;;;;;5023405;28;20030;-71
2023/07/28 09:47:50;;;;;;;7.38;4.20;;;40.70;49.50;;;;;;5025577;28;20037;-71
2023/07/28 09:50:17;;;;;;;6.95;3.58;;;39.30;51.60;;;;;;5028223;28;20529;-70
2023/07/28 09:52:46;;;;;;;6.72;4.75;;;37.90;54.10;;;;;;5027859;28;20463;-72
2023/07/28 09:55:16;;;;;;;2.88;2.50;;;41.40;51.00;;;;;;5026941;28;20032;-73
2023/07/28 09:57:46;;;;;;;4.13;3.30;;;44.00;48.20;;;;;;5024983;28;20025;-71
2023/07/28 10:00:14;;;;;;;5.15;3.38;;;45.40;45.40;;;;;;5028153;28;20468;-71
2023/07/28 10:02:40;;;;;;;4.22;3.42;;;42.10;46.70;;;;;;5028490;28;20076;-69
2023/07/28 10:05:07;;;;;;;4.65;3.45;;;40.30;48.70;;;;;;5021581;28;20092;-70
2023/07/28 10:07:40;;;;;;;3.78;2.90;;;37.80;50.20;;;;;;5027931;28;20029;-71
2023/07/28 10:10:10;;;;;;;4.65;2.83;;;35.80;52.90;;;;;;5027970;28;20033;-68
2023/07/28 10:12:49;;;;;;;6.60;2.95;;;35.00;56.10;;;;;;5027452;28;20052;-77
2023/07/28 10:15:17;;;;;;;3.05;2.15;;;38.20;53.40;;;;;;5030404;28;20113;-69
2023/07/28 10:17:49;;;;;;;5.30;2.50;;;38.30;49.90;;;;;;5026655;28;20073;-73
2023/07/28 10:20:27;;;;;;;4.07;2.80;;;38.70;49.30;;;;;;5027553;28;20056;-72
2023/07/28 10:22:53;;;;;;;4.07;2.17;;;39.90;51.10;;;;;;5042128;28;20037;-73
2023/07/28 10:25:23;;;;;;;2.92;2.40;;;43.10;47.00;;;;;;5026806;28;20401;-74
2023/07/28 10:27:51;;;;;;;3.38;2.65;;;44.10;46.70;;;;;;5024421;28;20083;-74
2023/07/28 10:30:16;;;;;;;3.05;2.25;;;41.90;46.90;;;;;;5026108;28;20048;-74
2023/07/28 10:32:51;;;;;;;3.45;2.47;;;39.90;49.00;;;;;;5031593;28;20405;-74
2023/07/28 10:35:25;;;;;;;3.20;2.10;;;37.70;53.20;;;;;;5025130;28;20053;-74
2023/07/28 10:37:53;;;;;;;3.90;2.80;;;35.60;53.30;;;;;;5025516;28;20026;-76
2023/07/28 10:40:34;;;;;;;5.78;2.60;;;35.70;53.00;;;;;;5027600;28;20382;-74
2023/07/28 10:43:01;;;;;;;4.90;2.75;;;34.20;54.50;;;;;;5027273;28;20049;-74
2023/07/28 10:45:29;;;;;;;3.40;2.58;;;33.50;56.00;;;;;;5026661;28;20389;-72
2023/07/28 10:47:56;;;;;;;3.08;2.40;;;33.50;61.20;;;;;;5026979;28;20032;-74
2023/07/28 10:50:23;;;;;;;3.47;2.70;;;33.60;56.70;;;;;;5028130;28;20048;-72
2023/07/28 10:52:49;;;;;;;5.28;2.90;;;33.80;59.80;;;;;;5022287;28;20025;-74
2023/07/28 10:55:21;;;;;;;4.82;3.17;;;34.30;58.50;;;;;;5031130;28;20489;-73
2023/07/28 10:57:48;;;;;;;4.28;2.67;;;34.30;57.20;;;;;;5026083;28;20029;-73
2023/07/28 11:00:15;;;;;;;5.82;2.63;;;34.30;57.10;;;;;;5022885;28;20037;-74
2023/07/28 11:02:45;;;;;;;6.47;2.88;;;33.90;57.00;;;;;;5027035;28;20091;-74
2023/07/28 11:05:14;;;;;;;3.38;3.03;;;33.40;55.60;;;;;;5029016;28;20120;-73
2023/07/28 11:07:43;;;;;;;4.95;2.53;;;33.10;56.60;;;;;;5021934;28;20503;-72
2023/07/28 11:10:13;;;;;;;2.95;2.58;;;33.30;56.20;;;;;;5028797;28;20045;-74
2023/07/28 11:12:47;;;;;;;14.02;4.68;;;33.50;56.60;;;;;;5028516;28;20108;-74
2023/07/28 11:15:14;;;;;;;3.13;2.22;;;33.40;56.40;;;;;;5024233;28;20026;-73
2023/07/28 11:17:50;;;;;;;4.53;2.80;;;32.80;58.00;;;;;;5031482;28;20745;-72
2023/07/28 11:20:23;;;;;;;;;;;32.70;56.90;;;;;;5027161;28;20041;-72
2023/07/28 11:22:57;;;;;;;4.20;2.75;;;32.50;56.70;;;;;;5030997;28;19920;-73
2023/07/28 11:25:25;;;;;;;5.68;3.00;;;32.90;58.10;;;;;;5030304;28;20040;-73
2023/07/28 11:27:51;;;;;;;3.58;2.45;;;33.10;58.10;;;;;;5029803;28;20025;-73
2023/07/28 11:30:17;;;;;;;;;;;32.60;57.50;;;;;;5028114;28;20033;-73
2023/07/28 11:32:45;;;;;;;4.80;2.73;;;32.70;59.80;;;;;;5024251;28;19917;-73
2023/07/28 11:35:12;;;;;;;6.32;2.47;;;32.30;62.20;;;;;;5028060;28;20057;-73
2023/07/28 11:37:40;;;;;;;4.45;2.40;;;32.80;58.00;;;;;;5032229;28;20026;-72
2023/07/28 11:40:10;;;;;;;4.88;2.35;;;32.10;56.70;;;;;;5028650;28;20041;-73
2023/07/28 11:42:38;;;;;;;3.10;2.40;;;31.90;58.80;;;;;;5028216;28;20039;-74
2023/07/28 11:45:04;;;;;;;4.68;3.88;;;32.00;58.10;;;;;;5028591;28;20029;-73
2023/07/28 11:47:31;;;;;;;4.72;2.92;;;32.20;55.60;;;;;;5033755;28;20029;-73
2023/07/28 11:49:58;;;;;;;;;;;32.40;56.00;;;;;;5023854;28;20048;-72
2023/07/28 11:52:28;;;;;;;6.40;3.95;;;32.50;54.90;;;;;;5028474;28;20236;-73
2023/07/28 11:54:54;;;;;;;3.17;2.38;;;32.00;54.40;;;;;;5019791;28;20033;-71
2023/07/28 11:57:21;;;;;;;8.68;3.60;;;32.40;57.30;;;;;;5023415;28;20031;-73
2023/07/28 11:59:46;;;;;;;3.78;2.65;;;32.40;59.60;;;;;;5027012;28;20048;-73
2023/07/28 12:02:12;;;;;;;4.15;2.60;;;32.40;56.10;;;;;;5020927;28;20034;-72
2023/07/28 12:04:39;;;;;;;2.80;2.15;;;32.50;58.40;;;;;;5027662;28;20033;-74
2023/07/28 12:07:13;;;;;;;3.45;2.67;;;32.70;58.80;;;;;;5027171;28;20095;-74
2023/07/28 12:09:54;;;;;;;3.90;2.30;;;32.90;58.90;;;;;;5031191;28;20029;-74
2023/07/28 12:12:23;;;;;;;6.03;2.75;;;32.80;55.50;;;;;;5033194;28;20441;-74
2023/07/28 12:14:51;;;;;;;2.72;2.30;;;32.50;54.80;;;;;;5035699;28;20028;-74
2023/07/28 12:17:18;;;;;;;3.53;2.75;;;32.20;53.60;;;;;;5030443;28;20033;-73
2023/07/28 12:22:34;;;;;;;7.03;2.65;;;32.10;55.20;;;;;;5027118;28;20037;-74
2023/07/28 12:24:59;;;;;;;3.88;2.63;;;31.70;57.70;;;;;;5031496;28;20029;-71
2023/07/28 12:27:26;;;;;;;2.78;2.25;;;32.10;54.60;;;;;;5026436;28;20046;-73
2023/07/28 12:29:52;;;;;;;4.00;2.83;;;32.40;59.60;;;;;;5025079;28;20037;-73
2023/07/28 12:32:18;;;;;;;3.10;2.50;;;32.90;55.00;;;;;;5033715;28;20041;-73
2023/07/28 12:34:44;;;;;;;;;;;33.00;52.90;;;;;;5033447;28;20026;-72
2023/07/28 12:37:09;;;;;;;3.35;2.10;;;32.70;55.60;;;;;;5024627;28;19909;-72
2023/07/28 12:39:39;;;;;;;2.75;2.50;;;31.70;53.90;;;;;;5031717;28;20044;-73
2023/07/28 12:42:09;;;;;;;3.95;2.72;;;31.70;59.90;;;;;;5028151;28;20022;-74
2023/07/28 12:44:35;;;;;;;3.97;2.50;;;31.90;56.80;;;;;;5030416;28;20029;-72
2023/07/28 12:47:01;;;;;;;2.78;2.28;;;32.50;59.70;;;;;;5034653;28;20048;-73
2023/07/28 12:49:30;;;;;;;3.72;2.33;;;33.10;55.80;;;;;;5033531;28;20038;-73